createdAt,value
2023-01-19T00:03:10.800Z,99159.00
2023-01-19T00:08:15.992Z,99171.40
2023-01-19T00:13:15.449Z,99201.00
2023-01-19T00:18:15.995Z,99217.60
2023-01-19T00:23:16.991Z,99225.60
2023-01-19T00:28:19.564Z,99235.80
2023-01-19T00:33:19.151Z,99229.40
2023-01-19T00:38:18.473Z,99237.40
2023-01-19T00:43:17.910Z,99258.40
2023-01-19T00:48:17.848Z,99258.00
2023-01-19T00:53:18.483Z,99279.00
2023-01-19T00:58:18.329Z,99278.40
2023-01-19T01:03:18.272Z,99269.00
2023-01-19T01:08:17.439Z,99261.80
2023-01-19T01:13:21.367Z,99255.60
2023-01-19T01:18:21.416Z,99246.80
2023-01-19T01:23:23.162Z,99249.00
2023-01-19T01:28:23.343Z,99244.00
2023-01-19T01:33:40.802Z,99246.20
2023-01-19T01:38:42.631Z,99234.80
2023-01-19T01:44:08.484Z,99234.20
2023-01-19T01:49:14.726Z,99232.80
2023-01-19T01:54:22.888Z,99231.40
2023-01-19T01:59:30.021Z,99224.00
2023-01-19T02:04:29.655Z,99220.40
2023-01-19T02:09:48.707Z,99225.60
2023-01-19T02:14:47.972Z,99225.60
2023-01-19T02:19:48.791Z,99234.40
2023-01-19T02:24:50.023Z,99238.40
2023-01-19T02:29:49.427Z,99238.20
2023-01-19T02:34:48.748Z,99232.00
2023-01-19T02:39:54.816Z,99225.00
2023-01-19T02:44:58.229Z,99225.60
2023-01-19T02:50:01.975Z,99237.20
2023-01-19T02:55:13.310Z,99238.80
2023-01-19T03:00:28.307Z,99231.60
2023-01-19T03:05:44.164Z,99238.60
2023-01-19T03:10:55.355Z,99233.80
2023-01-19T03:16:03.457Z,99230.00
2023-01-19T03:21:08.993Z,99221.40
2023-01-19T03:26:13.428Z,99223.60
2023-01-19T03:31:18.966Z,99231.80
2023-01-19T03:36:27.127Z,99243.80
2023-01-19T03:41:30.375Z,99253.20
2023-01-19T03:46:32.449Z,99253.00
2023-01-19T03:51:36.935Z,99261.20
2023-01-19T03:56:36.784Z,99272.40
2023-01-19T04:01:38.195Z,99278.20
2023-01-19T04:06:41.440Z,99284.20
2023-01-19T04:11:43.587Z,99290.80
2023-01-19T04:16:42.854Z,99306.20
2023-01-19T04:21:42.881Z,99306.00
2023-01-19T04:26:42.146Z,99310.40
2023-01-19T04:31:42.365Z,99316.80
2023-01-19T04:36:45.634Z,99314.60
2023-01-19T04:41:45.515Z,99318.60
2023-01-19T04:46:45.297Z,99320.80
2023-01-19T04:51:45.230Z,99321.40
2023-01-19T04:56:48.094Z,99327.40
2023-01-19T05:01:49.545Z,99328.40
2023-01-19T05:06:48.698Z,99343.20
2023-01-19T05:11:48.229Z,99347.00
2023-01-19T05:16:47.715Z,99345.00
2023-01-19T05:21:46.616Z,99356.40
2023-01-19T05:26:48.708Z,99372.40
2023-01-19T05:31:48.386Z,99374.00
2023-01-19T05:36:50.462Z,99356.60
2023-01-19T05:41:50.244Z,99366.80
2023-01-19T05:46:49.715Z,99374.60
2023-01-19T05:51:48.998Z,99379.40
2023-01-19T05:56:48.062Z,99380.20
2023-01-19T06:01:47.457Z,99383.00
2023-01-19T06:06:48.613Z,99388.80
2023-01-19T06:11:48.876Z,99392.40
2023-01-19T06:16:51.040Z,99402.20
2023-01-19T06:21:53.231Z,99403.80
2023-01-19T06:26:52.952Z,99408.00
2023-01-19T06:31:53.136Z,99435.40
2023-01-19T06:36:54.403Z,99457.60
2023-01-19T06:41:53.787Z,99469.80
2023-01-19T06:46:53.709Z,99473.60
2023-01-19T06:52:17.751Z,99481.00
2023-01-19T06:57:17.388Z,99493.80
2023-01-19T07:02:27.917Z,99488.60
2023-01-19T07:07:28.555Z,99486.80
2023-01-19T07:12:27.584Z,99479.40
2023-01-19T07:17:27.245Z,99468.60
2023-01-19T07:22:26.577Z,99464.80
2023-01-19T07:27:27.780Z,99455.40
2023-01-19T07:32:27.621Z,99473.00
2023-01-19T07:37:27.070Z,99480.60
2023-01-19T07:42:27.017Z,99471.40
2023-01-19T07:47:26.204Z,99476.00
2023-01-19T07:52:25.534Z,99475.40
2023-01-19T07:57:25.429Z,99484.60
2023-01-19T08:02:26.109Z,99502.00
2023-01-19T08:07:25.390Z,99513.20
2023-01-19T08:12:24.884Z,99522.40
2023-01-19T08:17:24.856Z,99514.40
2023-01-19T08:22:24.885Z,99501.00
2023-01-19T08:27:24.649Z,99501.60
2023-01-19T08:32:24.059Z,99492.20
2023-01-19T08:37:22.787Z,99489.60
2023-01-19T08:42:22.262Z,99477.00
2023-01-19T08:47:22.227Z,99487.60
2023-01-19T08:52:21.350Z,99487.80
2023-01-19T08:57:20.755Z,99500.40
2023-01-19T09:02:20.645Z,99501.00
2023-01-19T09:07:21.724Z,99516.20
2023-01-19T09:12:20.549Z,99521.20
2023-01-19T09:17:21.148Z,99519.60
2023-01-19T09:22:21.035Z,99518.80
2023-01-19T09:27:21.269Z,99521.60
2023-01-19T09:32:20.756Z,99514.80
2023-01-19T09:37:20.372Z,99538.40
2023-01-19T09:42:31.973Z,99532.20
2023-01-19T09:47:36.153Z,99543.40
2023-01-19T09:52:43.801Z,99535.40
2023-01-19T09:57:43.392Z,99526.40
2023-01-19T10:02:53.178Z,99529.20
2023-01-19T10:08:17.880Z,99517.80
2023-01-19T10:13:34.266Z,99513.20
2023-01-19T10:18:47.960Z,99510.40
2023-01-19T10:23:54.928Z,99511.20
2023-01-19T10:28:57.732Z,99507.20
2023-01-19T10:33:57.921Z,99506.80
2023-01-19T10:38:56.870Z,99501.00
2023-01-19T10:44:05.690Z,99498.80
2023-01-19T10:49:05.101Z,99496.00
2023-01-19T10:54:13.416Z,99484.80
2023-01-19T10:59:39.003Z,99479.80
2023-01-19T11:04:40.102Z,99473.40
2023-01-19T11:09:40.484Z,99476.80
2023-01-19T11:14:39.758Z,99483.40
2023-01-19T11:19:40.903Z,99479.80
2023-01-19T11:24:44.145Z,99480.40
2023-01-19T11:29:47.963Z,99473.40
2023-01-19T11:34:47.376Z,99472.40
2023-01-19T11:39:54.680Z,99467.40
2023-01-19T11:45:15.000Z,99462.20
2023-01-19T11:50:26.799Z,99458.40
2023-01-19T11:55:37.437Z,99452.40
2023-01-19T12:00:44.251Z,99452.00
2023-01-19T12:05:49.346Z,99452.80
2023-01-19T12:10:52.790Z,99447.00
2023-01-19T12:15:57.989Z,99452.60
2023-01-19T12:21:03.905Z,99454.20
2023-01-19T12:26:29.696Z,99456.60
2023-01-19T12:31:29.018Z,99458.20
2023-01-19T12:36:42.297Z,99456.60
2023-01-19T12:41:44.107Z,99455.60
2023-01-19T12:46:46.426Z,99449.00
2023-01-19T12:51:48.347Z,99445.40
2023-01-19T12:56:47.157Z,99441.20
2023-01-19T13:02:06.540Z,99453.20
2023-01-19T13:07:18.092Z,99452.40
2023-01-19T13:12:29.547Z,99440.80
2023-01-19T13:17:35.882Z,99436.80
2023-01-19T13:23:27.578Z,99429.20
2023-01-19T13:28:37.475Z,99440.20
2023-01-19T13:33:50.253Z,99433.40
2023-01-19T13:38:52.159Z,99430.60
2023-01-19T13:43:58.724Z,99434.20
2023-01-19T13:49:04.548Z,99443.20
2023-01-19T13:54:03.948Z,99444.00
2023-01-19T13:59:19.260Z,99440.20
2023-01-19T14:04:36.617Z,99454.60
2023-01-19T14:09:36.628Z,99460.40
2023-01-19T14:14:36.159Z,99464.40
2023-01-19T14:19:52.546Z,99461.00
2023-01-19T14:24:52.323Z,99467.60
2023-01-19T14:29:55.010Z,99459.80
2023-01-19T14:35:13.975Z,99458.80
2023-01-19T14:40:24.575Z,99458.00
2023-01-19T14:45:30.427Z,99451.60
2023-01-19T14:50:35.259Z,99458.00
2023-01-19T14:55:46.819Z,99461.60
2023-01-19T15:00:47.922Z,99462.40
2023-01-19T15:05:50.675Z,99461.20
2023-01-19T15:10:50.886Z,99457.60
2023-01-19T15:15:51.641Z,99473.40
2023-01-19T15:20:51.128Z,99479.40
2023-01-19T15:25:51.310Z,99480.60
2023-01-19T15:30:51.071Z,99476.40
2023-01-19T15:35:51.424Z,99480.00
2023-01-19T15:40:53.038Z,99479.80
2023-01-19T15:46:02.153Z,99486.40
2023-01-19T15:51:02.044Z,99490.40
2023-01-19T15:56:01.856Z,99489.40
2023-01-19T16:01:02.383Z,99494.20
2023-01-19T16:06:05.372Z,99498.80
2023-01-19T16:11:10.022Z,99497.80
2023-01-19T16:16:15.201Z,99491.80
2023-01-19T16:21:16.315Z,99488.80
2023-01-19T16:26:40.638Z,99493.00
2023-01-19T16:31:42.046Z,99493.20
2023-01-19T16:36:43.969Z,99495.80
2023-01-19T16:41:45.219Z,99501.20
2023-01-19T16:46:47.560Z,99501.20
2023-01-19T16:51:47.840Z,99503.00
2023-01-19T16:56:48.413Z,99501.60
2023-01-19T17:01:50.999Z,99510.20
2023-01-19T17:06:51.577Z,99511.40
2023-01-19T17:11:51.713Z,99510.40
2023-01-19T17:16:51.833Z,99501.40
2023-01-19T17:21:52.536Z,99502.80
2023-01-19T17:26:53.109Z,99502.40
2023-01-19T17:31:54.641Z,99500.80
2023-01-19T17:37:03.244Z,99492.60
2023-01-19T17:42:04.847Z,99485.20
2023-01-19T17:47:08.807Z,99488.00
2023-01-19T17:52:11.947Z,99486.20
2023-01-19T17:57:14.955Z,99483.60
2023-01-19T18:02:16.012Z,99486.60
2023-01-19T18:07:15.623Z,99488.80
2023-01-19T18:12:16.185Z,99489.80
2023-01-19T18:17:15.778Z,99486.80
2023-01-19T18:22:15.841Z,99484.60
2023-01-19T18:27:16.747Z,99483.40
2023-01-19T18:32:16.433Z,99486.00
2023-01-19T18:37:16.694Z,99489.40
2023-01-19T18:42:16.792Z,99493.40
2023-01-19T18:47:16.115Z,99494.20
2023-01-19T18:52:16.113Z,99494.80
2023-01-19T18:57:18.066Z,99485.20
2023-01-19T19:02:19.402Z,99487.60
2023-01-19T19:07:18.572Z,99487.80
2023-01-19T19:12:17.615Z,99492.40
2023-01-19T19:17:17.995Z,99494.00
2023-01-19T19:22:18.532Z,99497.00
2023-01-19T19:27:18.851Z,99496.00
2023-01-19T19:32:20.693Z,99503.20
2023-01-19T19:37:20.509Z,99506.80
2023-01-19T19:42:20.170Z,99509.00
2023-01-19T19:47:19.868Z,99513.60
2023-01-19T19:52:19.724Z,99516.00
2023-01-19T19:57:20.128Z,99521.20
2023-01-19T20:02:19.726Z,99526.00
2023-01-19T20:07:19.249Z,99533.00
2023-01-19T20:12:19.215Z,99535.20
2023-01-19T20:17:19.318Z,99527.80
2023-01-19T20:22:20.536Z,99534.20
2023-01-19T20:27:21.186Z,99541.00
2023-01-19T20:32:23.726Z,99545.80
2023-01-19T20:37:27.570Z,99546.40
2023-01-19T20:42:27.260Z,99551.60
2023-01-19T20:47:26.602Z,99557.60
2023-01-19T20:52:29.996Z,99557.40
2023-01-19T20:57:29.499Z,99559.40
2023-01-19T21:02:28.723Z,99561.40
2023-01-19T21:07:28.317Z,99565.60
2023-01-19T21:12:27.129Z,99565.80
2023-01-19T21:17:27.719Z,99564.80
2023-01-19T21:22:27.425Z,99567.00
2023-01-19T21:27:27.472Z,99578.20
2023-01-19T21:32:27.309Z,99588.60
2023-01-19T21:37:27.419Z,99594.80
2023-01-19T21:42:26.653Z,99606.00
2023-01-19T21:47:25.969Z,99609.80
2023-01-19T21:52:25.327Z,99616.80
2023-01-19T21:57:24.438Z,99617.40
2023-01-19T22:02:37.688Z,99626.80
2023-01-19T22:07:37.519Z,99628.60
2023-01-19T22:12:39.268Z,99634.40
2023-01-19T22:17:38.982Z,99635.60
2023-01-19T22:22:39.074Z,99631.00
2023-01-19T22:27:38.899Z,99639.20
2023-01-19T22:32:37.728Z,99646.00
2023-01-19T22:37:40.787Z,99642.80
2023-01-19T22:42:40.767Z,99644.20
2023-01-19T22:47:40.163Z,99651.40
2023-01-19T22:52:39.588Z,99655.20
2023-01-19T22:57:39.806Z,99661.60
2023-01-19T23:02:41.447Z,99668.20
2023-01-19T23:07:40.756Z,99662.40
2023-01-19T23:12:39.777Z,99664.40
2023-01-19T23:17:39.291Z,99675.00
2023-01-19T23:22:39.395Z,99684.80
2023-01-19T23:27:38.750Z,99689.60
2023-01-19T23:32:38.803Z,99701.80
2023-01-19T23:37:38.642Z,99703.80
2023-01-19T23:42:37.763Z,99707.00
2023-01-19T23:47:38.403Z,99701.20
2023-01-19T23:52:37.576Z,99698.40
2023-01-19T23:57:36.882Z,99713.80
